createdAt,value
2023-01-13T00:00:12.742Z,100416.09
2023-01-13T00:02:39.278Z,100420.78
2023-01-13T00:05:06.211Z,100416.00
2023-01-13T00:07:32.721Z,100408.03
2023-01-13T00:09:59.158Z,100401.13
2023-01-13T00:12:25.613Z,100408.38
2023-01-13T00:14:52.119Z,100398.88
2023-01-13T00:17:18.570Z,100404.84
2023-01-13T00:19:45.802Z,100393.78
2023-01-13T00:22:12.249Z,100390.81
2023-01-13T00:24:38.707Z,100392.22
2023-01-13T00:27:05.314Z,100395.03
2023-01-13T00:29:31.848Z,100404.06
2023-01-13T00:31:58.762Z,100414.47
2023-01-13T00:34:25.247Z,100405.81
2023-01-13T00:36:51.748Z,100419.59
2023-01-13T00:39:18.281Z,100415.22
2023-01-13T00:42:03.471Z,100416.25
2023-01-13T00:44:29.899Z,100403.59
2023-01-13T00:46:56.446Z,100405.66
2023-01-13T00:49:22.880Z,100406.38
2023-01-13T00:51:49.390Z,100402.28
2023-01-13T00:54:16.036Z,100403.53
2023-01-13T00:56:42.563Z,100394.63
2023-01-13T00:59:13.305Z,100380.47
2023-01-13T01:01:41.072Z,100371.25
2023-01-13T01:04:07.830Z,100378.88
2023-01-13T01:06:34.354Z,100371.91
2023-01-13T01:09:01.047Z,100371.56
2023-01-13T01:11:30.746Z,100365.53
2023-01-13T01:13:59.036Z,100363.69
2023-01-13T01:16:27.824Z,100358.22
2023-01-13T01:18:55.595Z,100361.88
2023-01-13T01:21:24.689Z,100363.13
2023-01-13T01:23:51.542Z,100361.53
2023-01-13T01:26:20.947Z,100359.94
2023-01-13T01:28:47.992Z,100350.72
2023-01-13T01:31:20.286Z,100358.50
2023-01-13T01:33:47.591Z,100358.25
2023-01-13T01:36:16.285Z,100357.22
2023-01-13T01:38:43.659Z,100364.06
2023-01-13T01:41:16.251Z,100379.59
2023-01-13T01:43:59.152Z,100378.09
2023-01-13T01:46:40.694Z,100395.75
2023-01-13T01:49:22.786Z,100396.78
2023-01-13T01:51:56.565Z,100392.34
2023-01-13T01:54:48.779Z,100385.25
2023-01-13T01:57:23.364Z,100385.84
2023-01-13T01:59:50.031Z,100401.81
2023-01-13T02:02:17.371Z,100387.78
2023-01-13T02:04:50.982Z,100378.09
2023-01-13T02:07:20.736Z,100379.00
2023-01-13T02:09:48.114Z,100359.06
2023-01-13T02:12:31.873Z,100377.44
2023-01-13T02:15:08.751Z,100374.16
2023-01-13T02:17:45.284Z,100364.47
2023-01-13T02:20:50.278Z,100377.81
2023-01-13T02:24:07.072Z,100376.22
2023-01-13T02:26:45.687Z,100364.69
2023-01-13T02:29:44.973Z,100357.13
2023-01-13T02:32:26.370Z,100355.31
2023-01-13T02:35:34.384Z,100358.72
2023-01-13T02:38:02.140Z,100361.03
2023-01-13T02:40:48.514Z,100344.28
2023-01-13T02:43:44.593Z,100340.69
2023-01-13T02:46:17.688Z,100334.97
2023-01-13T02:48:47.693Z,100331.31
2023-01-13T02:51:18.269Z,100330.75
2023-01-13T02:53:50.689Z,100338.16
2023-01-13T02:56:18.051Z,100330.59
2023-01-13T02:58:46.934Z,100330.16
2023-01-13T03:01:13.716Z,100337.56
2023-01-13T03:03:40.262Z,100333.47
2023-01-13T03:06:40.948Z,100332.19
2023-01-13T03:09:38.089Z,100336.75
2023-01-13T03:12:15.730Z,100337.78
2023-01-13T03:14:51.815Z,100331.06
2023-01-13T03:17:21.090Z,100320.47
2023-01-13T03:20:02.083Z,100327.78
2023-01-13T03:22:33.699Z,100320.66
2023-01-13T03:25:06.026Z,100316.09
2023-01-13T03:27:41.168Z,100321.91
2023-01-13T03:30:15.706Z,100326.84
2023-01-13T03:32:47.206Z,100313.94
2023-01-13T03:35:23.368Z,100317.03
2023-01-13T03:38:03.362Z,100326.03
2023-01-13T03:40:35.435Z,100328.44
2023-01-13T03:43:25.552Z,100348.94
2023-01-13T03:45:57.994Z,100345.47
2023-01-13T03:48:27.815Z,100346.59
2023-01-13T03:50:58.709Z,100330.38
2023-01-13T03:53:37.943Z,100326.16
2023-01-13T03:56:17.518Z,100334.50
2023-01-13T03:58:47.954Z,100331.06
2023-01-13T04:01:39.583Z,100328.22
2023-01-13T04:04:08.628Z,100330.84
2023-01-13T04:06:48.736Z,100328.34
2023-01-13T04:09:22.171Z,100326.44
2023-01-13T04:12:08.494Z,100320.56
2023-01-13T04:14:35.994Z,100321.13
2023-01-13T04:17:02.591Z,100311.78
2023-01-13T04:19:29.209Z,100314.88
2023-01-13T04:21:55.647Z,100324.09
2023-01-13T04:24:22.107Z,100333.00
2023-01-13T04:26:48.666Z,100336.56
2023-01-13T04:29:15.844Z,100338.38
2023-01-13T04:31:42.960Z,100333.47
2023-01-13T04:34:12.963Z,100340.78
2023-01-13T04:36:39.482Z,100333.94
2023-01-13T04:39:06.127Z,100341.34
2023-01-13T04:41:51.317Z,100348.75
2023-01-13T04:44:17.789Z,100345.78
2023-01-13T04:46:44.262Z,100331.88
2023-01-13T04:49:10.772Z,100332.56
2023-01-13T04:51:37.248Z,100335.56
2023-01-13T04:54:04.106Z,100333.09
2023-01-13T04:56:30.722Z,100328.06
2023-01-13T04:58:57.318Z,100331.38
2023-01-13T05:01:23.953Z,100334.81
2023-01-13T05:03:50.565Z,100320.44
2023-01-13T05:06:17.037Z,100332.84
2023-01-13T05:08:43.484Z,100324.84
2023-01-13T05:11:28.539Z,100319.69
2023-01-13T05:14:13.648Z,100311.72
2023-01-13T05:16:58.816Z,100326.44
2023-01-13T05:19:25.268Z,100306.00
2023-01-13T05:22:10.357Z,100312.84
2023-01-13T05:24:55.484Z,100304.66
2023-01-13T05:27:22.009Z,100307.03
2023-01-13T05:29:48.451Z,100307.28
2023-01-13T05:32:15.350Z,100296.53
2023-01-13T05:34:41.790Z,100306.00
2023-01-13T05:37:10.972Z,100311.91
2023-01-13T05:39:55.994Z,100297.22
2023-01-13T05:42:41.188Z,100312.94
2023-01-13T05:45:08.309Z,100312.28
2023-01-13T05:47:34.806Z,100330.06
2023-01-13T05:50:01.392Z,100326.44
2023-01-13T05:52:28.022Z,100316.72
2023-01-13T05:54:54.451Z,100322.91
2023-01-13T05:57:20.953Z,100329.50
2023-01-13T05:59:47.425Z,100335.47
2023-01-13T06:02:13.984Z,100324.66
2023-01-13T06:04:40.489Z,100327.06
2023-01-13T06:07:06.986Z,100338.78
2023-01-13T06:09:33.544Z,100332.06
2023-01-13T06:12:00.042Z,100330.94
2023-01-13T06:14:39.928Z,100329.91
2023-01-13T06:17:11.892Z,100330.13
2023-01-13T06:19:38.802Z,100329.09
2023-01-13T06:22:23.687Z,100335.59
2023-01-13T06:24:53.547Z,100333.56
2023-01-13T06:27:21.462Z,100336.81
2023-01-13T06:29:48.118Z,100328.47
2023-01-13T06:32:21.694Z,100330.97
2023-01-13T06:34:55.380Z,100325.03
2023-01-13T06:37:26.099Z,100340.31
2023-01-13T06:39:58.136Z,100331.41
2023-01-13T06:42:48.311Z,100313.63
2023-01-13T06:45:14.909Z,100339.38
2023-01-13T06:47:41.789Z,100344.16
2023-01-13T06:50:09.145Z,100335.25
2023-01-13T06:52:35.639Z,100349.97
2023-01-13T06:55:02.958Z,100353.41
2023-01-13T06:57:29.422Z,100347.34
2023-01-13T06:59:56.151Z,100341.88
2023-01-13T07:02:22.767Z,100346.31
2023-01-13T07:04:49.355Z,100357.84
2023-01-13T07:07:15.861Z,100347.34
2023-01-13T07:09:42.283Z,100358.97
2023-01-13T07:12:08.815Z,100348.50
2023-01-13T07:14:54.981Z,100353.47
2023-01-13T07:17:25.523Z,100347.44
2023-01-13T07:19:53.081Z,100363.75
2023-01-13T07:22:19.690Z,100360.09
2023-01-13T07:24:46.223Z,100371.38
2023-01-13T07:27:12.731Z,100378.00
2023-01-13T07:29:39.685Z,100372.50
2023-01-13T07:32:07.816Z,100376.50
2023-01-13T07:34:34.338Z,100371.25
2023-01-13T07:37:01.528Z,100365.53
2023-01-13T07:39:28.257Z,100376.59
2023-01-13T07:42:13.993Z,100371.13
2023-01-13T07:44:40.838Z,100371.13
2023-01-13T07:47:08.596Z,100368.47
2023-01-13T07:49:35.097Z,100383.19
2023-01-13T07:52:01.776Z,100380.13
2023-01-13T07:54:39.356Z,100384.66
2023-01-13T07:57:07.040Z,100385.78
2023-01-13T07:59:33.679Z,100387.38
2023-01-13T08:02:00.381Z,100391.38
2023-01-13T08:04:27.048Z,100385.84
2023-01-13T08:06:53.583Z,100385.63
2023-01-13T08:09:20.067Z,100381.16
2023-01-13T08:12:06.552Z,100377.28
2023-01-13T08:14:37.925Z,100382.53
2023-01-13T08:17:04.379Z,100373.38
2023-01-13T08:19:30.860Z,100372.34
2023-01-13T08:21:57.323Z,100377.69
2023-01-13T08:24:23.767Z,100391.38
2023-01-13T08:26:50.269Z,100385.66
2023-01-13T08:29:16.857Z,100393.88
2023-01-13T08:31:43.344Z,100407.34
2023-01-13T08:34:09.817Z,100405.25
2023-01-13T08:36:36.252Z,100404.00
2023-01-13T08:39:03.135Z,100407.19
2023-01-13T08:41:48.128Z,100422.16
2023-01-13T08:44:14.682Z,100421.81
2023-01-13T08:46:41.771Z,100432.56
2023-01-13T08:49:08.283Z,100432.81
2023-01-13T08:51:34.854Z,100442.19
2023-01-13T08:54:02.129Z,100439.78
2023-01-13T08:56:30.096Z,100447.09
2023-01-13T08:59:00.806Z,100442.31
2023-01-13T09:01:27.735Z,100459.09
2023-01-13T09:03:54.791Z,100463.22
2023-01-13T09:06:21.456Z,100466.31
2023-01-13T09:08:47.925Z,100475.22
2023-01-13T09:11:47.751Z,100470.31
2023-01-13T09:14:21.468Z,100471.09
2023-01-13T09:16:47.984Z,100477.63
2023-01-13T09:19:14.760Z,100474.44
2023-01-13T09:21:41.500Z,100492.81
2023-01-13T09:24:08.563Z,100490.97
2023-01-13T09:26:35.096Z,100494.63
2023-01-13T09:29:01.592Z,100495.09
2023-01-13T09:31:28.764Z,100485.09
2023-01-13T09:34:13.867Z,100463.75
2023-01-13T09:36:40.362Z,100481.81
2023-01-13T09:39:07.068Z,100483.63
2023-01-13T09:42:06.081Z,100485.00
2023-01-13T09:44:57.640Z,100491.28
2023-01-13T09:47:35.492Z,100489.56
2023-01-13T09:50:22.049Z,100500.69
2023-01-13T09:52:48.536Z,100506.84
2023-01-13T09:55:18.258Z,100509.00
2023-01-13T09:57:44.920Z,100513.00
2023-01-13T10:00:12.869Z,100506.94
2023-01-13T10:03:01.801Z,100512.53
2023-01-13T10:05:37.135Z,100510.72
2023-01-13T10:08:32.136Z,100505.56
2023-01-13T10:11:25.211Z,100499.38
2023-01-13T10:13:58.237Z,100515.13
